Time;durP1;ratioP1;P1;durP2;ratioP2;P2;SDS_P1;SDS_P2;PMS_P1;PMS_P2;Temp;Humidity;BMP_temperature;BMP_pressure;BME280_temperature;BME280_humidity;BME280_pressure;Samples;Min_cycle;Max_cycle;Signal;HPM_P1;HPM_P2
2022/06/04 00:00:24;;;;;;;;;;;;;;;;;;5042450;28;19981;-88
2022/06/04 00:02:50;;;;;;;;;;;;;;;;;;5022743;28;20369;-88
2022/06/04 00:05:17;;;;;;;;;;;;;;;;;;5040797;28;19923;-88
2022/06/04 00:07:43;;;;;;;;;;;;;;;;;;5040294;28;20261;-89
2022/06/04 00:15:38;;;;;;;;;;;;;;;;;;5042894;28;19924;-88
2022/06/04 00:18:04;;;;;;;;;;;;;;;;;;5040118;28;20011;-88
2022/06/04 00:20:30;;;;;;;;;;;;;;;;;;5040756;28;19924;-88
2022/06/04 00:22:59;;;;;;;;;;;;;;;;;;5039685;28;19917;-88
2022/06/04 00:25:25;;;;;;;;;;;;;;;;;;5039364;28;19971;-88
2022/06/04 00:27:51;;;;;;;;;;;;;;;;;;5039833;28;19924;-88
2022/06/04 00:30:16;;;;;;;;;;;;;;;;;;5038469;28;19917;-88
2022/06/04 00:32:42;;;;;;;;;;;;;;;;;;5039596;28;19925;-89
2022/06/04 00:35:09;;;;;;;;;;;;;;;;;;5040864;28;20304;-89
2022/06/04 00:37:35;;;;;;;;;;;;;;;;;;5038387;28;19923;-88
2022/06/04 00:40:06;;;;;;;;;;;;;;;;;;5041822;28;19925;-88
2022/06/04 00:42:32;;;;;;;;;;;;;;;;;;5039066;28;19963;-88
2022/06/04 00:45:16;;;;;;;;;;;;;;;;;;5040207;28;19995;-88
2022/06/04 00:47:41;;;;;;;;;;;;;;;;;;5039186;28;19921;-88
2022/06/04 00:50:09;;;;;;;;;;;;;;;;;;5037589;28;20459;-88
2022/06/04 00:52:35;;;;;;;;;;;;;;;;;;5038549;28;19922;-88
2022/06/04 00:55:03;;;;;;;;;;;;;;;;;;5040163;28;19917;-88
2022/06/04 00:57:37;;;;;;;;;;;;;;;;;;5040670;28;19917;-88
2022/06/04 01:00:07;;;;;;;;;;;;;;;;;;5045560;28;19905;-89
2022/06/04 01:02:32;;;;;;;;;;;;;;;;;;5055846;28;19921;-90
2022/06/04 01:05:16;;;;;;;;;;;;;;;;;;5058928;28;19960;-89
2022/06/04 01:07:47;;;;;;;;;;;;;;;;;;5046869;28;19917;-89
2022/06/04 01:10:30;;;;;;;;;;;;;;;;;;5036791;28;19971;-89
2022/06/04 01:13:14;;;;;;;;;;;;;;;;;;5036956;28;19932;-89
2022/06/04 01:15:39;;;;;;;;;;;;;;;;;;5039006;28;19924;-88
2022/06/04 01:18:12;;;;;;;;;;;;;;;;;;5038579;28;20296;-88
2022/06/04 01:20:56;;;;;;;;;;;;;;;;;;5037410;28;20258;-88
2022/06/04 01:23:42;;;;;;;;;;;;;;;;;;5036693;28;19924;-89
2022/06/04 01:26:17;;;;;;;;;;;;;;;;;;5037885;28;19963;-88
2022/06/04 01:28:48;;;;;;;;;;;;;;;;;;5037414;28;20011;-88
2022/06/04 01:31:17;;;;;;;;;;;;;;;;;;5036965;28;19917;-88
2022/06/04 01:33:53;;;;;;;;;;;;;;;;;;5037488;28;19917;-88
2022/06/04 01:36:42;;;;;;;;;;;;;;;;;;5037504;28;19924;-89
2022/06/04 01:39:15;;;;;;;;;;;;;;;;;;5030240;28;19940;-88
2022/06/04 01:41:55;;;;;;;;;;;;;;;;;;5038933;28;20369;-89
2022/06/04 01:44:46;;;;;;;;;;;;;;;;;;5038536;28;19921;-88
2022/06/04 01:47:14;;;;;;;;;;;;;;;;;;5034282;28;20396;-88
2022/06/04 01:49:47;;;;;;;;;;;;;;;;;;5039585;28;19918;-87
2022/06/04 01:52:15;;;;;;;;;;;;;;;;;;5039531;28;19959;-88
2022/06/04 01:54:52;;;;;;;;;;;;;;;;;;5036182;28;20385;-89
2022/06/04 01:57:24;;;;;;;;;;;;;;;;;;5036518;28;19917;-88
2022/06/04 01:59:54;;;;;;;;;;;;;;;;;;5039048;28;20330;-88
2022/06/04 02:02:27;;;;;;;;;;;;;;;;;;5042416;28;19953;-88
2022/06/04 02:04:54;;;;;;;;;;;;;;;;;;5042724;28;19917;-88
2022/06/04 02:07:32;;;;;;;;;;;;;;;;;;5041934;28;19940;-88
2022/06/04 02:10:04;;;;;;;;;;;;;;;;;;5040143;28;19917;-88
2022/06/04 02:12:33;;;;;;;;;;;;;;;;;;5040280;28;19924;-89
2022/06/04 02:14:58;;;;;;;;;;;;;;;;;;5040609;28;19986;-88
2022/06/04 02:17:24;;;;;;;;;;;;;;;;;;5042079;28;20326;-88
2022/06/04 02:19:49;;;;;;;;;;;;;;;;;;5041831;28;20019;-88
2022/06/04 02:22:16;;;;;;;;;;;;;;;;;;5040865;28;19951;-90
2022/06/04 02:24:42;;;;;;;;;;;;;;;;;;5041041;28;20296;-88
2022/06/04 02:27:09;;;;;;;;;;;;;;;;;;5039938;28;19924;-88
2022/06/04 02:29:38;;;;;;;;;;;;;;;;;;5039992;28;19921;-88
2022/06/04 02:32:03;;;;;;;;;;;;;;;;;;5039703;28;19923;-88
2022/06/04 02:34:33;;;;;;;;;;;;;;;;;;5040071;28;19917;-89
2022/06/04 02:37:27;;;;;;;;;;;;;;;;;;5041382;28;19917;-88
2022/06/04 02:40:08;;;;;;;;;;;;;;;;;;5023415;28;19921;-90
2022/06/04 02:42:37;;;;;;;;;;;;;;;;;;5041245;28;20020;-89
2022/06/04 02:45:15;;;;;;;;;;;;;;;;;;5040869;28;19917;-89
2022/06/04 02:47:47;;;;;;;;;;;;;;;;;;5041318;28;19925;-89
2022/06/04 02:50:24;;;;;;;;;;;;;;;;;;5039411;28;19917;-88
2022/06/04 02:52:51;;;;;;;;;;;;;;;;;;5037237;28;20447;-88
2022/06/04 02:55:21;;;;;;;;;;;;;;;;;;5036427;28;20006;-89
2022/06/04 02:57:49;;;;;;;;;;;;;;;;;;5037829;28;19917;-89
2022/06/04 03:00:17;;;;;;;;;;;;;;;;;;5038613;28;20357;-88
2022/06/04 03:02:43;;;;;;;;;;;;;;;;;;5036930;28;19917;-87
2022/06/04 03:05:11;;;;;;;;;;;;;;;;;;5038414;28;19917;-88
2022/06/04 03:07:39;;;;;;;;;;;;;;;;;;5037778;28;19917;-87
2022/06/04 03:10:08;;;;;;;;;;;;;;;;;;5039375;28;20008;-89
2022/06/04 03:12:34;;;;;;;;;;;;;;;;;;5042620;28;20023;-89
2022/06/04 03:15:00;;;;;;;;;;;;;;;;;;5042613;28;20097;-89
2022/06/04 03:17:25;;;;;;;;;;;;;;;;;;5039702;28;19917;-88
2022/06/04 03:19:51;;;;;;;;;;;;;;;;;;5040297;28;20269;-88
2022/06/04 03:22:17;;;;;;;;;;;;;;;;;;5039626;28;19917;-88
2022/06/04 03:24:42;;;;;;;;;;;;;;;;;;5041410;28;19987;-88
2022/06/04 03:27:09;;;;;;;;;;;;;;;;;;5038858;28;20377;-87
2022/06/04 03:29:35;;;;;;;;;;;;;;;;;;5045047;28;19923;-88
2022/06/04 03:32:00;;;;;;;;;;;;;;;;;;5040689;28;19964;-89
2022/06/04 03:34:26;;;;;;;;;;;;;;;;;;5040142;28;19940;-89
2022/06/04 03:36:52;;;;;;;;;;;;;;;;;;5041748;28;19924;-88
2022/06/04 03:39:17;;;;;;;;;;;;;;;;;;5043602;28;19917;-88
2022/06/04 03:41:47;;;;;;;;;;;;;;;;;;5042207;28;19944;-89
2022/06/04 03:44:15;;;;;;;;;;;;;;;;;;5041285;28;19917;-88
2022/06/04 03:46:41;;;;;;;;;;;;;;;;;;5042182;28;20008;-88
2022/06/04 03:49:11;;;;;;;;;;;;;;;;;;5042945;28;19952;-89
2022/06/04 03:51:39;;;;;;;;;;;;;;;;;;5044741;28;19917;-89
2022/06/04 03:54:05;;;;;;;;;;;;;;;;;;5041919;28;19924;-89
2022/06/04 03:56:31;;;;;;;;;;;;;;;;;;5041935;28;19921;-88
2022/06/04 03:58:56;;;;;;;;;;;;;;;;;;5040843;28;19924;-88
2022/06/04 04:01:23;;;;;;;;;;;;;;;;;;5041012;28;19924;-89
2022/06/04 04:03:50;;;;;;;;;;;;;;;;;;5040776;28;19917;-89
2022/06/04 04:06:17;;;;;;;;;;;;;;;;;;5039324;28;20464;-90
2022/06/04 04:08:43;;;;;;;;;;;;;;;;;;5040268;28;19920;-88
2022/06/04 04:11:12;;;;;;;;;;;;;;;;;;5041800;28;20394;-88
2022/06/04 04:13:38;;;;;;;;;;;;;;;;;;5040614;28;20432;-88
2022/06/04 04:16:03;;;;;;;;;;;;;;;;;;5042210;28;19979;-88
2022/06/04 04:18:29;;;;;;;;;;;;;;;;;;5042859;28;19924;-88
2022/06/04 04:20:55;;;;;;;;;;;;;;;;;;5040506;28;19917;-89
2022/06/04 04:23:21;;;;;;;;;;;;;;;;;;5042282;28;19927;-88
2022/06/04 04:25:46;;;;;;;;;;;;;;;;;;5041979;28;19952;-89
2022/06/04 04:28:12;;;;;;;;;;;;;;;;;;5040644;28;19956;-88
2022/06/04 04:30:37;;;;;;;;;;;;;;;;;;5041262;28;19977;-88
2022/06/04 04:33:07;;;;;;;;;;;;;;;;;;5040532;28;19917;-88
2022/06/04 04:35:33;;;;;;;;;;;;;;;;;;5039003;28;20016;-88
2022/06/04 04:37:59;;;;;;;;;;;;;;;;;;5039260;28;19924;-88
2022/06/04 04:40:26;;;;;;;;;;;;;;;;;;5040010;28;19921;-88
2022/06/04 04:42:52;;;;;;;;;;;;;;;;;;5039948;28;19953;-88
2022/06/04 04:45:19;;;;;;;;;;;;;;;;;;5039474;28;19924;-88
2022/06/04 04:47:45;;;;;;;;;;;;;;;;;;5039180;28;19917;-90
2022/06/04 04:50:15;;;;;;;;;;;;;;;;;;5041782;28;20377;-89
2022/06/04 04:52:44;;;;;;;;;;;;;;;;;;5045053;28;19921;-89
2022/06/04 04:55:11;;;;;;;;;;;;;;;;;;5057708;28;19905;-88
2022/06/04 04:57:36;;;;;;;;;;;;;;;;;;5059697;28;19947;-90
2022/06/04 05:00:04;;;;;;;;;;;;;;;;;;5052952;28;19924;-90
2022/06/04 05:02:29;;;;;;;;;;;;;;;;;;5044932;28;20004;-88
2022/06/04 05:04:55;;;;;;;;;;;;;;;;;;5036767;28;19956;-89
2022/06/04 05:07:21;;;;;;;;;;;;;;;;;;5036408;28;19921;-90
2022/06/04 05:09:46;;;;;;;;;;;;;;;;;;5036236;28;19924;-89
2022/06/04 05:12:12;;;;;;;;;;;;;;;;;;5034004;28;19917;-89
2022/06/04 05:14:37;;;;;;;;;;;;;;;;;;5035759;28;20027;-91
2022/06/04 05:17:03;;;;;;;;;;;;;;;;;;5035721;28;20004;-89
2022/06/04 05:19:29;;;;;;;;;;;;;;;;;;5036088;28;19922;-88
2022/06/04 05:21:58;;;;;;;;;;;;;;;;;;5037339;28;20274;-88
2022/06/04 05:24:31;;;;;;;;;;;;;;;;;;5035409;28;19924;-89
2022/06/04 05:26:57;;;;;;;;;;;;;;;;;;5037153;28;19917;-89
2022/06/04 05:29:33;;;;;;;;;;;;;;;;;;5038577;28;19917;-88
2022/06/04 05:31:59;;;;;;;;;;;;;;;;;;5036963;28;19983;-88
2022/06/04 05:34:24;;;;;;;;;;;;;;;;;;5036169;28;20372;-87
2022/06/04 05:36:53;;;;;;;;;;;;;;;;;;5039599;28;19921;-87
2022/06/04 05:39:18;;;;;;;;;;;;;;;;;;5040809;28;19921;-88
2022/06/04 05:41:44;;;;;;;;;;;;;;;;;;5042238;28;19928;-88
2022/06/04 05:44:09;;;;;;;;;;;;;;;;;;5039321;28;19917;-88
2022/06/04 05:46:36;;;;;;;;;;;;;;;;;;5041548;28;19918;-90
2022/06/04 05:49:02;;;;;;;;;;;;;;;;;;5039507;28;19980;-88
2022/06/04 05:51:28;;;;;;;;;;;;;;;;;;5040163;28;19929;-89
2022/06/04 05:53:55;;;;;;;;;;;;;;;;;;5040533;28;20361;-89
2022/06/04 05:56:25;;;;;;;;;;;;;;;;;;5041441;28;19924;-90
2022/06/04 05:58:56;;;;;;;;;;;;;;;;;;5040814;28;19940;-89
2022/06/04 06:01:23;;;;;;;;;;;;;;;;;;5040787;28;19920;-90
2022/06/04 06:03:48;;;;;;;;;;;;;;;;;;5022736;28;19921;-89
2022/06/04 06:06:15;;;;;;;;;;;;;;;;;;5040683;28;19913;-89
2022/06/04 06:08:40;;;;;;;;;;;;;;;;;;5041176;28;20016;-88
2022/06/04 06:11:07;;;;;;;;;;;;;;;;;;5041512;28;20006;-88
2022/06/04 06:13:32;;;;;;;;;;;;;;;;;;5042437;28;19920;-88
2022/06/04 06:16:03;;;;;;;;;;;;;;;;;;5040128;28;19918;-88
2022/06/04 06:18:28;;;;;;;;;;;;;;;;;;5041874;28;19924;-90
2022/06/04 06:20:54;;;;;;;;;;;;;;;;;;5041636;28;19917;-89
2022/06/04 06:23:19;;;;;;;;;;;;;;;;;;5041784;28;19917;-88
2022/06/04 06:25:44;;;;;;;;;;;;;;;;;;5042771;28;19918;-89
2022/06/04 06:28:10;;;;;;;;;;;;;;;;;;5042629;28;19928;-89
2022/06/04 06:30:35;;;;;;;;;;;;;;;;;;5041547;28;20356;-88
2022/06/04 06:33:03;;;;;;;;;;;;;;;;;;5043317;28;19918;-88
2022/06/04 06:35:31;;;;;;;;;;;;;;;;;;5041683;28;19967;-89
2022/06/04 06:37:58;;;;;;;;;;;;;;;;;;5041661;28;19917;-89
2022/06/04 06:40:24;;;;;;;;;;;;;;;;;;5040360;28;19948;-89
2022/06/04 06:42:49;;;;;;;;;;;;;;;;;;5042314;28;19917;-90
2022/06/04 06:45:15;;;;;;;;;;;;;;;;;;5040510;28;20296;-89
2022/06/04 06:47:44;;;;;;;;;;;;;;;;;;5039366;28;19921;-89
2022/06/04 06:50:12;;;;;;;;;;;;;;;;;;5041415;28;19917;-91
2022/06/04 06:52:37;;;;;;;;;;;;;;;;;;5041365;28;20293;-88
2022/06/04 06:55:03;;;;;;;;;;;;;;;;;;5040662;28;19923;-89
2022/06/04 06:57:28;;;;;;;;;;;;;;;;;;5040197;28;19917;-89
2022/06/04 06:59:55;;;;;;;;;;;;;;;;;;5040644;28;19971;-88
2022/06/04 07:02:20;;;;;;;;;;;;;;;;;;5041625;28;19928;-89
2022/06/04 07:04:45;;;;;;;;;;;;;;;;;;5041952;28;19917;-88
2022/06/04 07:07:12;;;;;;;;;;;;;;;;;;5042857;28;20004;-89
2022/06/04 07:09:43;;;;;;;;;;;;;;;;;;5041502;28;19917;-89
2022/06/04 07:12:10;;;;;;;;;;;;;;;;;;5041407;28;19917;-89
2022/06/04 07:14:36;;;;;;;;;;;;;;;;;;5041653;28;19913;-88
2022/06/04 07:17:05;;;;;;;;;;;;;;;;;;5039863;28;19917;-89
2022/06/04 07:19:30;;;;;;;;;;;;;;;;;;5040422;28;20015;-88
2022/06/04 07:21:56;;;;;;;;;;;;;;;;;;5041343;28;19948;-89
2022/06/04 07:24:22;;;;;;;;;;;;;;;;;;5041475;28;19921;-89
2022/06/04 07:26:48;;;;;;;;;;;;;;;;;;5040771;28;19924;-89
2022/06/04 07:29:14;;;;;;;;;;;;;;;;;;5040936;28;20015;-90
2022/06/04 07:31:39;;;;;;;;;;;;;;;;;;5038626;28;20284;-90
2022/06/04 07:34:04;;;;;;;;;;;;;;;;;;5038985;28;19917;-90
2022/06/04 07:36:35;;;;;;;;;;;;;;;;;;5040483;28;19917;-90
2022/06/04 07:39:02;;;;;;;;;;;;;;;;;;5040091;28;20064;-89
2022/06/04 07:41:27;;;;;;;;;;;;;;;;;;5040355;28;19913;-92
2022/06/04 07:43:53;;;;;;;;;;;;;;;;;;5043258;28;19917;-88
2022/06/04 07:46:21;;;;;;;;;;;;;;;;;;5042107;28;20022;-89
2022/06/04 07:48:50;;;;;;;;;;;;;;;;;;5041428;28;19918;-88
2022/06/04 07:51:20;;;;;;;;;;;;;;;;;;5039482;28;19917;-90
2022/06/04 07:53:50;;;;;;;;;;;;;;;;;;5039333;28;19917;-88
2022/06/04 07:56:17;;;;;;;;;;;;;;;;;;5037560;28;19923;-88
2022/06/04 07:58:42;;;;;;;;;;;;;;;;;;5036128;28;19917;-92
2022/06/04 08:01:09;;;;;;;;;;;;;;;;;;5038026;28;19917;-90
2022/06/04 08:03:35;;;;;;;;;;;;;;;;;;5038790;28;19988;-90
2022/06/04 08:06:01;;;;;;;;;;;;;;;;;;5039623;28;19921;-89
2022/06/04 08:08:28;;;;;;;;;;;;;;;;;;5039653;28;20008;-90
2022/06/04 08:10:53;;;;;;;;;;;;;;;;;;5038695;28;19959;-90
2022/06/04 08:15:44;;;;;;;;;;;;;;;;;;5039237;28;20420;-89
2022/06/04 08:18:10;;;;;;;;;;;;;;;;;;5038196;28;19917;-90
2022/06/04 08:20:41;;;;;;;;;;;;;;;;;;5040073;28;19976;-89
2022/06/04 08:23:06;;;;;;;;;;;;;;;;;;5039985;28;20364;-89
2022/06/04 08:25:32;;;;;;;;;;;;;;;;;;5040013;28;19968;-88
2022/06/04 08:27:58;;;;;;;;;;;;;;;;;;5039910;28;19917;-88
2022/06/04 08:30:29;;;;;;;;;;;;;;;;;;5039227;28;20391;-88
2022/06/04 08:32:55;;;;;;;;;;;;;;;;;;5040563;28;19917;-89
2022/06/04 08:35:21;;;;;;;;;;;;;;;;;;5040738;28;19921;-89
2022/06/04 08:37:46;;;;;;;;;;;;;;;;;;5041765;28;19944;-89
2022/06/04 08:40:23;;;;;;;;;;;;;;;;;;5042728;28;19921;-89
2022/06/04 08:43:02;;;;;;;;;;;;;;;;;;5053633;28;19912;-90
2022/06/04 08:45:28;;;;;;;;;;;;;;;;;;5059208;28;19909;-89
2022/06/04 08:47:53;;;;;;;;;;;;;;;;;;5050731;28;19940;-88
2022/06/04 08:50:20;;;;;;;;;;;;;;;;;;5041696;28;19963;-87
2022/06/04 08:52:45;;;;;;;;;;;;;;;;;;5037902;28;19917;-88
2022/06/04 08:58:06;;;;;;;;;;;;;;;;;;5037865;28;19967;-87
2022/06/04 09:00:52;;;;;;;;;;;;;;;;;;5036565;28;20369;-89
2022/06/04 09:03:23;;;;;;;;;;;;;;;;;;5025759;28;20375;-88
2022/06/04 09:05:51;;;;;;;;;;;;;;;;;;5035820;28;19917;-87
2022/06/04 09:08:22;;;;;;;;;;;;;;;;;;5036587;28;19917;-87
2022/06/04 09:10:50;;;;;;;;;;;;;;;;;;5022671;28;19988;-88
2022/06/04 09:13:18;;;;;;;;;;;;;;;;;;5039433;28;19924;-86
2022/06/04 09:15:49;;;;;;;;;;;;;;;;;;5037641;28;20399;-87
2022/06/04 09:18:32;;;;;;;;;;;;;;;;;;5039507;28;19918;-86
2022/06/04 09:21:01;;;;;;;;;;;;;;;;;;5038049;28;20498;-86
2022/06/04 09:23:36;;;;;;;;;;;;;;;;;;5037871;28;20373;-87
2022/06/04 09:26:07;;;;;;;;;;;;;;;;;;5036605;28;19921;-86
2022/06/04 09:28:51;;;;;;;;;;;;;;;;;;5037589;28;19924;-87
2022/06/04 09:31:29;;;;;;;;;;;;;;;;;;5037831;28;20434;-90
2022/06/04 09:34:01;;;;;;;;;;;;;;;;;;5037927;28;20285;-87
2022/06/04 09:36:37;;;;;;;;;;;;;;;;;;5038027;28;19917;-86
2022/06/04 09:39:05;;;;;;;;;;;;;;;;;;5038040;28;19960;-87
2022/06/04 09:41:32;;;;;;;;;;;;;;;;;;5037392;28;19925;-88
2022/06/04 09:44:05;;;;;;;;;;;;;;;;;;5037859;28;19917;-86
2022/06/04 09:46:30;;;;;;;;;;;;;;;;;;5037528;28;19921;-86
2022/06/04 09:48:57;;;;;;;;;;;;;;;;;;5038747;28;20361;-86
2022/06/04 09:51:26;;;;;;;;;;;;;;;;;;5037296;28;19923;-89
2022/06/04 09:54:05;;;;;;;;;;;;;;;;;;5037472;28;19917;-86
2022/06/04 09:56:30;;;;;;;;;;;;;;;;;;5037169;28;19923;-88
2022/06/04 09:59:06;;;;;;;;;;;;;;;;;;5037220;28;19949;-87
2022/06/04 10:01:31;;;;;;;;;;;;;;;;;;5037095;28;19921;-86
2022/06/04 10:04:11;;;;;;;;;;;;;;;;;;5037088;28;19924;-87
2022/06/04 10:06:37;;;;;;;;;;;;;;;;;;5037377;28;19972;-92
2022/06/04 10:11:48;;;;;;;;;;;;;;;;;;5037568;28;19923;-85
2022/06/04 10:14:14;;;;;;;;;;;;;;;;;;5037498;28;19921;-87
2022/06/04 10:16:45;;;;;;;;;;;;;;;;;;5037427;28;19917;-86
2022/06/04 10:19:18;;;;;;;;;;;;;;;;;;5036890;28;20327;-87
2022/06/04 10:21:45;;;;;;;;;;;;;;;;;;5035971;28;20361;-85
2022/06/04 10:24:21;;;;;;;;;;;;;;;;;;5035754;28;19921;-87
2022/06/04 10:26:57;;;;;;;;;;;;;;;;;;5036447;28;19924;-88
2022/06/04 10:29:33;;;;;;;;;;;;;;;;;;5036345;28;20063;-87
2022/06/04 10:32:05;;;;;;;;;;;;;;;;;;5036420;28;20412;-85
2022/06/04 10:34:50;;;;;;;;;;;;;;;;;;5036710;28;19969;-86
2022/06/04 10:37:29;;;;;;;;;;;;;;;;;;5036567;28;20284;-87
2022/06/04 10:40:20;;;;;;;;;;;;;;;;;;5036502;28;19925;-86
2022/06/04 10:43:04;;;;;;;;;;;;;;;;;;5036339;28;19925;-90
2022/06/04 10:45:34;;;;;;;;;;;;;;;;;;5036036;28;19960;-86
2022/06/04 10:48:04;;;;;;;;;;;;;;;;;;5036384;28;20015;-87
2022/06/04 10:53:26;;;;;;;;;;;;;;;;;;5036714;28;20027;-87
2022/06/04 10:55:54;;;;;;;;;;;;;;;;;;5034755;28;19921;-86
2022/06/04 10:58:40;;;;;;;;;;;;;;;;;;5036479;28;19921;-89
2022/06/04 11:01:09;;;;;;;;;;;;;;;;;;5036630;28;20285;-85
2022/06/04 11:04:07;;;;;;;;;;;;;;;;;;5037453;28;19940;-87
2022/06/04 11:06:36;;;;;;;;;;;;;;;;;;5029471;28;19960;-86
2022/06/04 11:09:06;;;;;;;;;;;;;;;;;;5037572;28;19929;-87
2022/06/04 11:11:33;;;;;;;;;;;;;;;;;;5038464;28;19921;-89
2022/06/04 11:14:10;;;;;;;;;;;;;;;;;;5037453;28;19943;-91
2022/06/04 11:16:41;;;;;;;;;;;;;;;;;;5038187;28;19917;-86
2022/06/04 11:19:13;;;;;;;;;;;;;;;;;;5037874;28;19918;-87
2022/06/04 11:21:42;;;;;;;;;;;;;;;;;;5036203;28;20059;-88
2022/06/04 11:24:13;;;;;;;;;;;;;;;;;;5037776;28;19956;-86
2022/06/04 11:26:57;;;;;;;;;;;;;;;;;;5038701;28;20008;-86
2022/06/04 11:29:25;;;;;;;;;;;;;;;;;;5038171;28;19917;-92
2022/06/04 11:31:58;;;;;;;;;;;;;;;;;;5039673;28;19967;-86
2022/06/04 11:34:42;;;;;;;;;;;;;;;;;;5040023;28;20008;-88
2022/06/04 11:37:17;;;;;;;;;;;;;;;;;;5039962;28;19917;-87
2022/06/04 11:39:48;;;;;;;;;;;;;;;;;;5039909;28;19929;-86
2022/06/04 11:42:37;;;;;;;;;;;;;;;;;;5041105;28;19925;-86
2022/06/04 11:45:14;;;;;;;;;;;;;;;;;;5040466;28;19921;-86
2022/06/04 11:47:48;;;;;;;;;;;;;;;;;;5038207;28;19917;-88
2022/06/04 11:50:20;;;;;;;;;;;;;;;;;;5037756;28;19980;-86
2022/06/04 11:52:45;;;;;;;;;;;;;;;;;;5036355;28;20284;-91
2022/06/04 11:55:20;;;;;;;;;;;;;;;;;;5037240;28;19921;-86
2022/06/04 11:57:46;;;;;;;;;;;;;;;;;;5035407;28;19923;-86
2022/06/04 12:00:29;;;;;;;;;;;;;;;;;;5036848;28;20016;-86
2022/06/04 12:02:57;;;;;;;;;;;;;;;;;;5036755;28;20365;-88
2022/06/04 12:05:36;;;;;;;;;;;;;;;;;;5035243;28;19917;-86
2022/06/04 12:08:05;;;;;;;;;;;;;;;;;;5035422;28;20019;-87
2022/06/04 12:10:48;;;;;;;;;;;;;;;;;;5017703;28;19921;-87
2022/06/04 12:13:25;;;;;;;;;;;;;;;;;;5034637;28;19917;-86
2022/06/04 12:15:54;;;;;;;;;;;;;;;;;;5038524;28;19988;-89
2022/06/04 12:18:27;;;;;;;;;;;;;;;;;;5049221;28;19900;-89
2022/06/04 12:26:27;;;;;;;;;;;;;;;;;;5034976;28;20345;-86
2022/06/04 12:28:53;;;;;;;;;;;;;;;;;;5034743;28;19917;-89
2022/06/04 12:31:34;;;;;;;;;;;;;;;;;;5016683;28;19921;-85
2022/06/04 12:34:00;;;;;;;;;;;;;;;;;;5034626;28;20293;-86
2022/06/04 12:36:27;;;;;;;;;;;;;;;;;;5034556;28;19917;-85
2022/06/04 12:39:00;;;;;;;;;;;;;;;;;;5034422;28;19953;-88
2022/06/04 12:41:36;;;;;;;;;;;;;;;;;;5034212;28;19928;-86
2022/06/04 12:44:01;;;;;;;;;;;;;;;;;;5034463;28;19925;-86
2022/06/04 12:46:28;;;;;;;;;;;;;;;;;;5034165;28;19921;-86
2022/06/04 12:49:16;;;;;;;;;;;;;;;;;;5034487;28;19917;-91
2022/06/04 12:52:04;;;;;;;;;;;;;;;;;;5034280;28;19921;-86
2022/06/04 12:54:40;;;;;;;;;;;;;;;;;;5034208;28;19917;-86
2022/06/04 12:57:17;;;;;;;;;;;;;;;;;;5034544;28;20024;-91
2022/06/04 12:59:45;;;;;;;;;;;;;;;;;;5032965;28;20427;-88
2022/06/04 13:02:30;;;;;;;;;;;;;;;;;;5033061;28;20400;-86
2022/06/04 13:05:18;;;;;;;;;;;;;;;;;;5034139;28;19917;-88
2022/06/04 13:07:46;;;;;;;;;;;;;;;;;;5034479;28;19917;-86
2022/06/04 13:10:18;;;;;;;;;;;;;;;;;;5032909;28;19913;-86
2022/06/04 13:12:49;;;;;;;;;;;;;;;;;;5034874;28;19940;-87
2022/06/04 13:15:33;;;;;;;;;;;;;;;;;;5034965;28;19951;-89
2022/06/04 13:17:59;;;;;;;;;;;;;;;;;;5033853;28;19947;-87
2022/06/04 13:20:42;;;;;;;;;;;;;;;;;;5034426;28;19971;-89
2022/06/04 13:23:07;;;;;;;;;;;;;;;;;;5033826;28;20399;-85
2022/06/04 13:25:35;;;;;;;;;;;;;;;;;;5032531;28;19917;-86
2022/06/04 13:28:01;;;;;;;;;;;;;;;;;;5033571;28;19921;-86
2022/06/04 13:30:28;;;;;;;;;;;;;;;;;;5032378;28;20047;-86
2022/06/04 13:33:13;;;;;;;;;;;;;;;;;;5033639;28;19918;-90
2022/06/04 13:35:44;;;;;;;;;;;;;;;;;;5033719;28;19921;-86
2022/06/04 13:38:30;;;;;;;;;;;;;;;;;;5033884;28;19917;-89
2022/06/04 13:41:03;;;;;;;;;;;;;;;;;;5033080;28;19921;-93
2022/06/04 13:43:30;;;;;;;;;;;;;;;;;;5033566;28;19971;-93
2022/06/04 13:46:16;;;;;;;;;;;;;;;;;;5033936;28;19956;-90
2022/06/04 13:49:00;;;;;;;;;;;;;;;;;;5034069;28;19917;-89
2022/06/04 13:51:28;;;;;;;;;;;;;;;;;;5033734;28;19917;-85
2022/06/04 13:53:55;;;;;;;;;;;;;;;;;;5032069;28;19917;-87
2022/06/04 13:56:22;;;;;;;;;;;;;;;;;;5036611;28;20373;-87
2022/06/04 13:58:47;;;;;;;;;;;;;;;;;;5038969;28;19923;-85
2022/06/04 14:01:19;;;;;;;;;;;;;;;;;;5037403;28;19917;-88
2022/06/04 14:03:46;;;;;;;;;;;;;;;;;;5037724;28;20330;-88
2022/06/04 14:06:12;;;;;;;;;;;;;;;;;;5038266;28;19921;-86
2022/06/04 14:08:49;;;;;;;;;;;;;;;;;;5037516;28;19971;-91
2022/06/04 14:11:20;;;;;;;;;;;;;;;;;;5037511;28;19917;-90
2022/06/04 14:14:03;;;;;;;;;;;;;;;;;;5037263;28;20293;-86
2022/06/04 14:16:32;;;;;;;;;;;;;;;;;;5037215;28;19918;-86
2022/06/04 14:19:06;;;;;;;;;;;;;;;;;;5036505;28;19983;-86
2022/06/04 14:21:43;;;;;;;;;;;;;;;;;;5037572;28;20004;-87
2022/06/04 14:24:15;;;;;;;;;;;;;;;;;;5036918;28;19917;-87
2022/06/04 14:26:46;;;;;;;;;;;;;;;;;;5035344;28;19986;-87
2022/06/04 14:29:31;;;;;;;;;;;;;;;;;;5036693;28;20011;-92
2022/06/04 14:32:02;;;;;;;;;;;;;;;;;;5036972;28;19943;-86
2022/06/04 14:34:33;;;;;;;;;;;;;;;;;;5036434;28;19924;-93
2022/06/04 14:36:58;;;;;;;;;;;;;;;;;;5036219;28;19917;-93
2022/06/04 14:39:26;;;;;;;;;;;;;;;;;;5036707;28;19971;-87
2022/06/04 14:42:00;;;;;;;;;;;;;;;;;;5035981;28;19921;-86
2022/06/04 14:44:52;;;;;;;;;;;;;;;;;;5036626;28;20005;-91
2022/06/04 14:47:38;;;;;;;;;;;;;;;;;;5036340;28;19913;-91
2022/06/04 14:50:22;;;;;;;;;;;;;;;;;;5034896;28;19944;-86
2022/06/04 14:52:49;;;;;;;;;;;;;;;;;;5036234;28;19919;-87
2022/06/04 14:55:18;;;;;;;;;;;;;;;;;;5036264;28;19957;-90
2022/06/04 14:57:58;;;;;;;;;;;;;;;;;;5034725;28;19917;-86
2022/06/04 15:00:30;;;;;;;;;;;;;;;;;;5035900;28;20406;-86
2022/06/04 15:03:20;;;;;;;;;;;;;;;;;;5035810;28;20004;-87
2022/06/04 15:06:14;;;;;;;;;;;;;;;;;;5035922;28;20002;-86
2022/06/04 15:08:42;;;;;;;;;;;;;;;;;;5026645;28;20384;-87
2022/06/04 15:11:17;;;;;;;;;;;;;;;;;;5034265;28;20403;-87
2022/06/04 15:13:46;;;;;;;;;;;;;;;;;;5035845;28;19917;-87
2022/06/04 15:16:32;;;;;;;;;;;;;;;;;;5035579;28;19921;-87
2022/06/04 15:18:58;;;;;;;;;;;;;;;;;;5035668;28;19924;-87
2022/06/04 15:21:23;;;;;;;;;;;;;;;;;;5035804;28;19925;-86
2022/06/04 15:23:51;;;;;;;;;;;;;;;;;;5035642;28;19956;-86
2022/06/04 15:26:21;;;;;;;;;;;;;;;;;;5035368;28;19925;-86
2022/06/04 15:34:46;;;;;;;;;;;;;;;;;;5035632;28;19951;-86
2022/06/04 15:37:14;;;;;;;;;;;;;;;;;;5035292;28;19921;-88
2022/06/04 15:39:55;;;;;;;;;;;;;;;;;;5035532;28;19925;-87
2022/06/04 15:42:22;;;;;;;;;;;;;;;;;;5035616;28;19924;-86
2022/06/04 15:45:03;;;;;;;;;;;;;;;;;;5035622;28;19917;-86
2022/06/04 15:47:50;;;;;;;;;;;;;;;;;;5035611;28;19917;-88
2022/06/04 15:56:09;;;;;;;;;;;;;;;;;;5036505;28;19975;-88
2022/06/04 15:58:34;;;;;;;;;;;;;;;;;;5036720;28;20035;-86
2022/06/04 16:01:08;;;;;;;;;;;;;;;;;;5036095;28;19917;-88
2022/06/04 16:03:35;;;;;;;;;;;;;;;;;;5036909;28;19917;-91
2022/06/04 16:06:21;;;;;;;;;;;;;;;;;;5035406;28;19921;-86
2022/06/04 16:08:57;;;;;;;;;;;;;;;;;;5034221;28;19917;-86
2022/06/04 16:11:28;;;;;;;;;;;;;;;;;;5034684;28;19917;-94
2022/06/04 16:14:10;;;;;;;;;;;;;;;;;;5034698;28;19917;-87
2022/06/04 16:16:41;;;;;;;;;;;;;;;;;;5034463;28;19917;-87
2022/06/04 16:19:35;;;;;;;;;;;;;;;;;;5032709;28;19917;-87
2022/06/04 16:22:20;;;;;;;;;;;;;;;;;;5034561;28;19917;-87
2022/06/04 16:25:01;;;;;;;;;;;;;;;;;;5034535;28;19924;-87
2022/06/04 16:27:28;;;;;;;;;;;;;;;;;;5055556;28;19917;-88
2022/06/04 16:30:12;;;;;;;;;;;;;;;;;;5054307;28;19924;-87
2022/06/04 16:32:57;;;;;;;;;;;;;;;;;;5052425;28;19917;-87
2022/06/04 16:35:22;;;;;;;;;;;;;;;;;;5049077;28;19918;-86
2022/06/04 16:38:27;;;;;;;;;;;;;;;;;;5037327;28;20448;-87
2022/06/04 16:43:38;;;;;;;;;;;;;;;;;;5034717;28;19928;-86
2022/06/04 16:46:05;;;;;;;;;;;;;;;;;;5033271;28;20317;-93
2022/06/04 16:48:32;;;;;;;;;;;;;;;;;;5034103;28;19971;-94
2022/06/04 16:50:59;;;;;;;;;;;;;;;;;;5034256;28;19917;-91
2022/06/04 16:53:25;;;;;;;;;;;;;;;;;;5034193;28;19995;-89
2022/06/04 16:55:51;;;;;;;;;;;;;;;;;;5034216;28;19928;-90
2022/06/04 16:58:16;;;;;;;;;;;;;;;;;;5034108;28;19921;-87
2022/06/04 17:00:42;;;;;;;;;;;;;;;;;;5033940;28;19944;-86
2022/06/04 17:03:34;;;;;;;;;;;;;;;;;;5035530;28;20272;-87
2022/06/04 17:06:03;;;;;;;;;;;;;;;;;;5033803;28;19917;-90
2022/06/04 17:08:47;;;;;;;;;;;;;;;;;;5036059;28;20291;-87
2022/06/04 17:11:13;;;;;;;;;;;;;;;;;;5035888;28;20011;-93
2022/06/04 17:13:38;;;;;;;;;;;;;;;;;;5037249;28;19956;-86
2022/06/04 17:16:23;;;;;;;;;;;;;;;;;;5041407;28;19917;-92
2022/06/04 17:18:57;;;;;;;;;;;;;;;;;;5039089;28;19918;-86
2022/06/04 17:21:47;;;;;;;;;;;;;;;;;;5037876;28;20336;-86
2022/06/04 17:24:21;;;;;;;;;;;;;;;;;;5031013;28;19925;-87
2022/06/04 17:27:08;;;;;;;;;;;;;;;;;;5036964;28;19918;-87
2022/06/04 17:29:33;;;;;;;;;;;;;;;;;;5035288;28;19921;-86
2022/06/04 17:32:12;;;;;;;;;;;;;;;;;;5037612;28;19924;-92
2022/06/04 17:34:57;;;;;;;;;;;;;;;;;;5036558;28;19921;-87
2022/06/04 17:37:44;;;;;;;;;;;;;;;;;;5037919;28;19917;-87
2022/06/04 17:40:28;;;;;;;;;;;;;;;;;;5036384;28;19921;-86
2022/06/04 17:42:55;;;;;;;;;;;;;;;;;;5036927;28;19947;-88
2022/06/04 17:45:20;;;;;;;;;;;;;;;;;;5038378;28;19917;-91
2022/06/04 17:47:47;;;;;;;;;;;;;;;;;;5037285;28;19924;-88